Orlando, FL (32807)

9:00 AM EST on December 11, 2016 (GMT -0500)
Toady's Backyard Weather, Azalea Park | | Change Station

Elev 98 ft 28.54 °N, 81.30 °W | Updated 20 seconds ago

Overcast
Overcast
60.8 °F
Feels Like 60.8 °F
N
2.2
Wind Variable Wind from ENE

Today
High -- | Low -- °F
--% Chance of Precip.
Yesterday
High -- | Low -- °F
Precip. -- in
Pressure 30.30 in
Visibility 10.0 miles
Clouds Mostly Cloudy 3300 ft
Overcast 4100 ft
Dew Point 58 °F
Humidity 91%
Rainfall 0.00 in
Snow Depth Not available.
7:07 AM 5:29 PM
Waxing Gibbous, 91% visible
METAR KORL 111353Z 07008KT 10SM BKN033 OVC041 18/14 A3029 RMK AO2 SLP260 T01780144
Pressure 30.30 in
Visibility 10.0 miles
Clouds Mostly Cloudy 3300 ft
Overcast 4100 ft
Dew Point 58 °F
Humidity 91%
Rainfall 0.00 in
Snow Depth Not available.
7:07 AM 5:29 PM
Waxing Gibbous, 91% visible
METAR KORL 111353Z 07008KT 10SM BKN033 OVC041 18/14 A3029 RMK AO2 SLP260 T01780144

10-Day Weather Forecast

Almanac

Astronomy

Dec. 11, 2016 Rise Set
Actual Time
Civil Twilight
Nautical Twilight
Astronomical Twilight
Moon
Length of Visible Light
Length of Day
Tomorrow will be .
, % of the Moon is Illuminated

Today's Extremes

State Highs State Lows

Community

WunderPhotos

Upload Photos

1,956,708 photos uploaded!

WunderBlog® & News

Nearby

Air Quality

  Air Quality AQ Index Pollutant
Not available.

Snow Depth

Station Depth Elevation

Earthquake Activity

City Distance Mag. Time & Date
Minimum magnitude displayed is 2.5.

Coastal Water Temperatures

Place Temperature

Stations

Nearby Weather Stations

Station Location Temp. Windchill Dew Point Humidity Wind Precip. Elev Updated Type
                   

Watches & Warnings

There are currently no watches in effect.